ADDS - METARS form results

Aviation Digital Data Service (ADDS)

Output produced by METARs form (1819 UTC 09 July 2020)
found at http://aviationweather.gov/metar/data/
 
METAR text: KVYS 091815Z AUTO 18011G15KT 140V200 10SM SCT036 SCT050 BKN070 32/23 A2984 RMK AO2 T03210234
Conditions at: KVYS (PERU , IL, US) observed 1815 UTC 09 July 2020
Temperature: 32.1°C (90°F)
Dewpoint: 23.4°C (74°F) [RH = 60%]
Pressure (altimeter): 29.84 inches Hg (1010.6 mb)
Winds: from the S (180 degrees) at 13 MPH (11 knots; 5.7 m/s)
gusting to 17 MPH (15 knots; 7.7 m/s)
Visibility: 10 or more miles (16+ km)
Ceiling: 7000 feet AGL
Clouds: scattered clouds at 3600 feet AGL
scattered clouds at 5000 feet AGL
broken clouds at 7000 feet AGL
Weather: automated observation with no human augmentation;
there may or may not be significant weather present at this time

METAR text: KVYS 091750Z AUTO 15009KT 10SM SCT034 BKN040 BKN049 32/23 A2987 RMK AO2 T03180233 10318 20239
Conditions at: KVYS (PERU , IL, US) observed 1750 UTC 09 July 2020
Temperature: 31.8°C (89°F)
Dewpoint: 23.3°C (74°F) [RH = 61%]
Pressure (altimeter): 29.87 inches Hg (1011.6 mb)
Winds: from the SSE (150 degrees) at 10 MPH (9 knots; 4.6 m/s)
Visibility: 10 or more miles (16+ km)
Ceiling: 4000 feet AGL
Clouds: scattered clouds at 3400 feet AGL
broken clouds at 4000 feet AGL
broken clouds at 4900 feet AGL
Weather: automated observation with no human augmentation;
there may or may not be significant weather present at this time

METAR text: KVYS 091735Z AUTO 16008KT 10SM SCT034 SCT040 32/23 A2987 RMK AO2 T03160234
Conditions at: KVYS (PERU , IL, US) observed 1735 UTC 09 July 2020
Temperature: 31.6°C (89°F)
Dewpoint: 23.4°C (74°F) [RH = 62%]
Pressure (altimeter): 29.87 inches Hg (1011.6 mb)
Winds: from the SSE (160 degrees) at 9 MPH (8 knots; 4.1 m/s)
Visibility: 10 or more miles (16+ km)
Ceiling: at least 12,000 feet AGL
Clouds: scattered clouds at 3400 feet AGL
scattered clouds at 4000 feet AGL
Weather: automated observation with no human augmentation;
there may or may not be significant weather present at this time